Time;durP1;ratioP1;P1;durP2;ratioP2;P2;SDS_P1;SDS_P2;PMS_P1;PMS_P2;Temp;Humidity;BMP_temperature;BMP_pressure;BME280_temperature;BME280_humidity;BME280_pressure;Samples;Min_cycle;Max_cycle;Signal;HPM_P1;HPM_P2
2022/11/25 00:01:14;;;;;;;;;;;5.90;93.10;;;;;;5012717;28;19909;-44
2022/11/25 00:03:42;;;;;;;;;;;5.90;93.10;;;;;;5014074;28;20243;-44
2022/11/25 00:06:11;;;;;;;;;;;5.90;93.10;;;;;;5013133;28;19916;-43
2022/11/25 00:08:39;;;;;;;;;;;5.90;93.00;;;;;;5010209;28;20322;-43
2022/11/25 00:11:06;;;;;;;;;;;5.80;93.00;;;;;;4993909;28;19918;-44
2022/11/25 00:13:33;;;;;;;;;;;5.90;93.00;;;;;;4994143;28;19906;-44
2022/11/25 00:16:00;;;;;;;;;;;5.90;93.00;;;;;;4998909;28;19920;-45
2022/11/25 00:18:27;;;;;;;;;;;5.90;92.90;;;;;;4995148;28;19917;-45
2022/11/25 00:20:53;;;;;;;;;;;5.80;92.90;;;;;;5010821;28;19913;-46
2022/11/25 00:23:20;;;;;;;;;;;5.80;92.80;;;;;;5002713;28;19916;-44
2022/11/25 00:25:47;;;;;;;;;;;5.70;92.80;;;;;;5010311;28;19906;-44
2022/11/25 00:28:14;;;;;;;;;;;5.80;92.80;;;;;;5010306;28;19909;-44
2022/11/25 00:30:41;;;;;;;;;;;5.70;92.80;;;;;;4994780;28;20351;-44
2022/11/25 00:33:08;;;;;;;;;;;5.70;92.80;;;;;;5011166;28;19941;-45
2022/11/25 00:35:37;;;;;;;;;;;5.70;92.80;;;;;;5000301;28;19916;-44
2022/11/25 00:38:04;;;;;;;;;;;5.70;92.80;;;;;;5011626;28;19909;-45
2022/11/25 00:40:30;;;;;;;;;;;5.70;92.70;;;;;;5013167;28;19913;-44
2022/11/25 00:45:44;;;;;;;;;;;5.60;92.70;;;;;;4995249;28;20255;-47
2022/11/25 00:48:15;;;;;;;;;;;5.60;92.70;;;;;;5002792;28;19909;-45
2022/11/25 00:50:42;;;;;;;;;;;5.60;92.70;;;;;;4994561;28;20247;-44
2022/11/25 00:53:11;;;;;;;;;;;5.60;92.70;;;;;;5010230;28;19905;-44
2022/11/25 00:56:11;;;;;;;;;;;5.60;92.70;;;;;;5008671;28;19914;-45
2022/11/25 00:58:26;;;;;;;;;;;5.60;92.70;;;;;;4994490;28;19952;-44
2022/11/25 01:00:52;;;;;;;;;;;5.60;92.70;;;;;;5000826;28;20338;-44
2022/11/25 01:03:19;;;;;;;;;;;5.60;92.70;;;;;;5013115;28;19919;-44
2022/11/25 01:05:44;;;;;;;;;;;5.50;92.60;;;;;;5005110;28;19933;-45
2022/11/25 01:08:11;;;;;;;;;;;5.50;92.50;;;;;;5011129;28;19910;-45
2022/11/25 01:10:38;;;;;;;;;;;5.60;92.60;;;;;;5009920;28;19917;-45
2022/11/25 01:13:05;;;;;;;;;;;5.50;92.60;;;;;;4993340;28;19913;-44
2022/11/25 01:15:35;;;;;;;;;;;5.60;92.60;;;;;;5012539;28;20406;-44
2022/11/25 01:18:01;;;;;;;;;;;5.60;92.50;;;;;;5004951;28;19910;-44
2022/11/25 01:20:27;;;;;;;;;;;5.60;92.50;;;;;;4994185;28;19921;-44
2022/11/25 01:22:53;;;;;;;;;;;5.60;92.50;;;;;;5003685;28;19964;-45
2022/11/25 01:25:18;;;;;;;;;;;5.60;92.50;;;;;;5014082;28;19913;-44
2022/11/25 01:27:45;;;;;;;;;;;5.60;92.40;;;;;;4994436;28;20267;-45
2022/11/25 01:30:14;;;;;;;;;;;5.60;92.40;;;;;;5003970;28;19949;-45
2022/11/25 01:32:41;;;;;;;;;;;5.60;92.40;;;;;;5009282;28;20349;-44
2022/11/25 01:35:07;;;;;;;;;;;5.60;92.40;;;;;;4994129;28;19914;-44
2022/11/25 01:37:34;;;;;;;;;;;5.60;92.40;;;;;;4998826;28;19909;-44
2022/11/25 01:40:04;;;;;;;;;;;5.60;92.30;;;;;;5012659;28;19913;-44
2022/11/25 01:42:31;;;;;;;;;;;5.70;92.30;;;;;;5013633;28;20242;-46
2022/11/25 01:45:27;;;;;;;;;;;5.60;92.30;;;;;;5012732;28;19982;-46
2022/11/25 01:47:59;;;;;;;;;;;5.70;92.30;;;;;;4993541;28;19910;-45
2022/11/25 01:50:29;;;;;;;;;;;5.70;92.20;;;;;;4994115;28;19936;-44
2022/11/25 01:52:56;;;;;;;;;;;5.70;92.20;;;;;;5000943;28;20223;-44
2022/11/25 01:55:27;;;;;;;;;;;5.60;92.10;;;;;;5008052;28;19917;-44
2022/11/25 01:58:14;;;;;;;;;;;5.60;92.00;;;;;;4994255;28;19909;-44
2022/11/25 02:00:49;;;;;;;;;;;5.70;92.10;;;;;;4993758;28;19957;-44
2022/11/25 02:03:21;;;;;;;;;;;5.60;92.20;;;;;;4993834;28;19905;-44
2022/11/25 02:05:55;;;;;;;;;;;5.70;92.10;;;;;;4993923;28;20235;-43
2022/11/25 02:08:23;;;;;;;;;;;5.70;92.10;;;;;;5000438;28;19925;-46
2022/11/25 02:10:50;;;;;;;;;;;5.70;92.00;;;;;;5011747;28;19987;-43
2022/11/25 02:13:19;;;;;;;;;;;5.80;92.10;;;;;;5012812;28;19909;-43
2022/11/25 02:15:47;;;;;;;;;;;5.80;92.00;;;;;;5012851;28;19909;-43
2022/11/25 02:18:13;;;;;;;;;;;5.90;91.90;;;;;;4999207;28;20405;-43
2022/11/25 02:20:40;;;;;;;;;;;5.90;91.90;;;;;;5001390;28;19909;-43
2022/11/25 02:23:09;;;;;;;;;;;5.90;91.80;;;;;;5010440;28;19909;-43
2022/11/25 02:25:39;;;;;;;;;;;5.90;91.70;;;;;;4997244;28;19910;-43
2022/11/25 02:28:23;;;;;;;;;;;5.90;91.70;;;;;;5012465;28;19935;-44
2022/11/25 02:30:50;;;;;;;;;;;5.90;91.70;;;;;;5012726;28;19913;-43
2022/11/25 02:33:17;;;;;;;;;;;5.90;91.60;;;;;;5014778;28;19911;-43
2022/11/25 02:35:54;;;;;;;;;;;5.90;91.60;;;;;;5015292;28;20001;-43
2022/11/25 02:38:40;;;;;;;;;;;5.90;91.60;;;;;;5010456;28;19917;-43
2022/11/25 02:41:25;;;;;;;;;;;5.90;91.60;;;;;;5012224;28;19905;-43
2022/11/25 02:43:51;;;;;;;;;;;6.00;91.50;;;;;;4996767;28;19981;-43
2022/11/25 02:46:20;;;;;;;;;;;6.00;91.50;;;;;;4996908;28;19920;-43
2022/11/25 02:48:50;;;;;;;;;;;6.00;91.40;;;;;;4996662;28;20012;-43
2022/11/25 02:51:18;;;;;;;;;;;6.00;91.30;;;;;;5011748;28;19913;-43
2022/11/25 02:53:45;;;;;;;;;;;6.00;91.20;;;;;;5007742;28;20217;-43
2022/11/25 02:56:13;;;;;;;;;;;6.00;91.30;;;;;;4996834;28;19906;-43
2022/11/25 02:58:40;;;;;;;;;;;6.00;91.10;;;;;;4996444;28;19920;-42
2022/11/25 03:01:07;;;;;;;;;;;6.00;91.20;;;;;;4996695;28;19949;-42
2022/11/25 03:03:35;;;;;;;;;;;6.00;91.10;;;;;;5000959;28;20000;-44
2022/11/25 03:06:01;;;;;;;;;;;6.00;91.10;;;;;;5015409;28;19964;-43
2022/11/25 03:08:28;;;;;;;;;;;6.00;91.10;;;;;;5008748;28;19916;-43
2022/11/25 03:10:54;;;;;;;;;;;6.00;91.10;;;;;;5011127;28;19918;-42
2022/11/25 03:13:21;;;;;;;;;;;6.00;91.20;;;;;;4996005;28;19925;-43
2022/11/25 03:15:48;;;;;;;;;;;6.00;91.20;;;;;;4995809;28;19917;-44
2022/11/25 03:18:15;;;;;;;;;;;6.00;91.20;;;;;;5001973;28;19913;-43
2022/11/25 03:20:42;;;;;;;;;;;6.00;91.20;;;;;;5003958;28;19985;-42
2022/11/25 03:23:08;;;;;;;;;;;6.00;91.10;;;;;;5010964;28;20329;-42
2022/11/25 03:25:35;;;;;;;;;;;6.00;91.10;;;;;;5012855;28;19916;-41
2022/11/25 03:28:02;;;;;;;;;;;6.00;91.20;;;;;;4996054;28;19913;-43
2022/11/25 03:30:29;;;;;;;;;;;6.00;91.20;;;;;;5011236;28;19917;-42
2022/11/25 03:32:56;;;;;;;;;;;6.00;91.20;;;;;;4997584;28;19917;-43
2022/11/25 03:35:23;;;;;;;;;;;6.00;91.20;;;;;;4995133;28;19956;-42
2022/11/25 03:37:50;;;;;;;;;;;6.00;91.10;;;;;;5005346;28;19910;-41
2022/11/25 03:40:17;;;;;;;;;;;6.10;91.10;;;;;;5014945;28;19916;-42
2022/11/25 03:42:43;;;;;;;;;;;6.10;91.10;;;;;;5015273;28;20056;-42
2022/11/25 03:45:14;;;;;;;;;;;6.10;91.00;;;;;;5008294;28;19984;-42
2022/11/25 03:47:41;;;;;;;;;;;6.10;91.10;;;;;;4995608;28;19952;-41
2022/11/25 03:50:09;;;;;;;;;;;6.10;91.10;;;;;;5004993;28;19913;-42
2022/11/25 03:52:36;;;;;;;;;;;6.20;91.10;;;;;;5008220;28;19968;-41
2022/11/25 03:55:04;;;;;;;;;;;6.20;91.10;;;;;;5014792;28;19913;-41
2022/11/25 03:57:31;;;;;;;;;;;6.20;91.00;;;;;;5013262;28;19913;-43
2022/11/25 03:59:58;;;;;;;;;;;6.20;91.00;;;;;;4993770;28;20403;-41
2022/11/25 04:02:24;;;;;;;;;;;6.20;91.00;;;;;;4995140;28;19906;-42
2022/11/25 04:04:51;;;;;;;;;;;6.20;91.00;;;;;;5007605;28;19928;-43
2022/11/25 04:07:18;;;;;;;;;;;6.20;91.00;;;;;;5011861;28;19920;-44
2022/11/25 04:09:43;;;;;;;;;;;6.20;91.00;;;;;;5013555;28;19967;-44
2022/11/25 04:14:55;;;;;;;;;;;6.30;91.20;;;;;;5012965;28;20322;-56
2022/11/25 04:17:22;;;;;;;;;;;6.30;91.30;;;;;;5010597;28;19905;-61
2022/11/25 04:19:48;;;;;;;;;;;6.30;91.30;;;;;;5009883;28;19909;-60
2022/11/25 04:22:15;;;;;;;;;;;6.30;91.50;;;;;;5006343;28;19932;-57
2022/11/25 04:24:42;;;;;;;;;;;6.30;91.70;;;;;;5014697;28;19906;-52
2022/11/25 04:27:08;;;;;;;;;;;6.30;91.70;;;;;;5010900;28;19960;-51
2022/11/25 04:29:34;;;;;;;;;;;6.30;91.90;;;;;;4993751;28;20000;-55
2022/11/25 04:32:00;;;;;;;;;;;6.30;92.10;;;;;;4993810;28;20079;-58
2022/11/25 04:34:29;;;;;;;;;;;6.30;92.30;;;;;;5011917;28;20382;-58
2022/11/25 04:36:56;;;;;;;;;;;6.30;92.50;;;;;;5012670;28;20347;-58
2022/11/25 04:39:22;;;;;;;;;;;6.30;92.60;;;;;;5013182;28;19920;-60
2022/11/25 04:42:30;;;;;;;;;;;6.40;92.70;;;;;;4994313;28;19909;-57
2022/11/25 04:44:35;;;;;;;;;;;6.30;92.80;;;;;;4994220;28;19920;-60
2022/11/25 04:47:02;;;;;;;;;;;6.40;92.90;;;;;;4995254;28;19910;-60
2022/11/25 04:49:28;;;;;;;;;;;6.30;93.00;;;;;;4994563;28;19964;-61
2022/11/25 04:51:55;;;;;;;;;;;6.30;93.00;;;;;;4997867;28;19909;-58
2022/11/25 04:54:20;;;;;;;;;;;6.30;93.10;;;;;;5006162;28;19916;-59
2022/11/25 04:56:47;;;;;;;;;;;6.40;93.30;;;;;;4997233;28;19909;-57
2022/11/25 05:02:01;;;;;;;;;;;6.30;93.40;;;;;;5013329;28;19916;-51
2022/11/25 05:04:27;;;;;;;;;;;6.40;93.40;;;;;;5009505;28;20426;-56
2022/11/25 05:06:56;;;;;;;;;;;6.40;93.40;;;;;;4995855;28;19971;-51
2022/11/25 05:09:21;;;;;;;;;;;6.40;93.40;;;;;;5002235;28;19917;-54
2022/11/25 05:11:47;;;;;;;;;;;6.40;93.50;;;;;;5009645;28;20286;-57
2022/11/25 05:14:12;;;;;;;;;;;6.40;93.60;;;;;;4995036;28;19910;-52
2022/11/25 05:16:39;;;;;;;;;;;6.40;93.70;;;;;;5013948;28;19910;-51
2022/11/25 05:19:06;;;;;;;;;;;6.40;93.60;;;;;;5012547;28;20313;-54
2022/11/25 05:21:32;;;;;;;;;;;6.40;93.70;;;;;;5003534;28;19921;-50
2022/11/25 05:24:00;;;;;;;;;;;6.40;93.80;;;;;;5009258;28;19909;-51
2022/11/25 05:26:30;;;;;;;;;;;6.50;93.80;;;;;;4994407;28;19916;-56
2022/11/25 05:28:57;;;;;;;;;;;6.40;93.80;;;;;;4994494;28;19960;-55
2022/11/25 05:31:26;;;;;;;;;;;6.40;93.80;;;;;;4993869;28;19952;-57
2022/11/25 05:33:53;;;;;;;;;;;6.40;93.90;;;;;;4994338;28;20242;-60
2022/11/25 05:36:20;;;;;;;;;;;6.40;93.90;;;;;;4996513;28;19968;-61
2022/11/25 05:38:47;;;;;;;;;;;6.50;93.90;;;;;;5010961;28;19917;-60
2022/11/25 05:41:13;;;;;;;;;;;6.50;93.90;;;;;;5010657;28;19920;-59
2022/11/25 05:43:40;;;;;;;;;;;6.40;93.90;;;;;;5013588;28;19963;-59
2022/11/25 05:46:07;;;;;;;;;;;6.40;93.90;;;;;;4998951;28;19960;-60
2022/11/25 05:48:34;;;;;;;;;;;6.50;93.90;;;;;;4994226;28;19905;-61
2022/11/25 05:51:04;;;;;;;;;;;6.40;93.90;;;;;;5008434;28;19917;-60
2022/11/25 05:53:31;;;;;;;;;;;6.40;93.90;;;;;;5011940;28;20838;-60
2022/11/25 05:56:03;;;;;;;;;;;6.40;93.90;;;;;;5012554;28;19914;-61
2022/11/25 05:58:30;;;;;;;;;;;6.40;93.90;;;;;;5000790;28;19971;-59
2022/11/25 06:00:57;;;;;;;;;;;6.40;94.00;;;;;;4997916;28;19906;-60
2022/11/25 06:03:25;;;;;;;;;;;6.50;93.90;;;;;;5010316;28;19913;-60
2022/11/25 06:05:54;;;;;;;;;;;6.40;93.90;;;;;;5015462;28;19956;-60
2022/11/25 06:08:23;;;;;;;;;;;6.40;94.00;;;;;;5002884;28;19920;-59
2022/11/25 06:10:50;;;;;;;;;;;6.50;94.00;;;;;;5015517;28;19917;-61
2022/11/25 06:13:16;;;;;;;;;;;6.50;94.00;;;;;;5010378;28;19913;-58
2022/11/25 06:15:44;;;;;;;;;;;6.50;94.00;;;;;;4997581;28;19913;-60
2022/11/25 06:18:15;;;;;;;;;;;6.50;94.10;;;;;;4997208;28;19967;-60
2022/11/25 06:20:42;;;;;;;;;;;6.50;94.10;;;;;;4997396;28;19905;-58
2022/11/25 06:23:09;;;;;;;;;;;6.50;94.20;;;;;;5012188;28;19959;-60
2022/11/25 06:25:36;;;;;;;;;;;6.50;94.20;;;;;;5016967;28;19944;-57
2022/11/25 06:28:03;;;;;;;;;;;6.50;94.20;;;;;;5014984;28;19913;-56
2022/11/25 06:30:30;;;;;;;;;;;6.50;94.20;;;;;;5016662;28;19924;-56
2022/11/25 06:32:57;;;;;;;;;;;6.50;94.20;;;;;;5005578;28;19941;-49
2022/11/25 06:35:24;;;;;;;;;;;6.50;94.20;;;;;;5008597;28;20014;-50
2022/11/25 06:37:52;;;;;;;;;;;6.50;94.30;;;;;;5011788;28;19975;-51
2022/11/25 06:40:19;;;;;;;;;;;6.50;94.30;;;;;;5014487;28;20385;-50
2022/11/25 06:42:46;;;;;;;;;;;6.50;94.30;;;;;;5016332;28;19917;-54
2022/11/25 06:45:15;;;;;;;;;;;6.60;94.30;;;;;;5016505;28;19913;-58
2022/11/25 06:47:42;;;;;;;;;;;6.60;94.40;;;;;;5003823;28;20401;-54
2022/11/25 06:50:09;;;;;;;;;;;6.60;94.40;;;;;;4996671;28;19987;-54
2022/11/25 06:52:36;;;;;;;;;;;6.60;94.40;;;;;;5012732;28;20335;-55
2022/11/25 06:55:03;;;;;;;;;;;6.60;94.40;;;;;;5003599;28;19932;-57
2022/11/25 06:57:29;;;;;;;;;;;6.60;94.40;;;;;;4996872;28;19960;-56
2022/11/25 06:59:55;;;;;;;;;;;6.60;94.40;;;;;;4996558;28;19910;-58
2022/11/25 07:02:22;;;;;;;;;;;6.60;94.50;;;;;;5013775;28;19919;-60
2022/11/25 07:04:51;;;;;;;;;;;6.60;94.40;;;;;;5003934;28;20311;-60
2022/11/25 07:07:18;;;;;;;;;;;6.60;94.40;;;;;;4996429;28;19909;-59
2022/11/25 07:09:46;;;;;;;;;;;6.70;94.50;;;;;;5005079;28;19917;-59
2022/11/25 07:12:13;;;;;;;;;;;6.70;94.50;;;;;;4997932;28;19918;-57
2022/11/25 07:14:40;;;;;;;;;;;6.70;94.50;;;;;;5000462;28;20015;-59
2022/11/25 07:17:05;;;;;;;;;;;6.60;94.50;;;;;;5014459;28;19909;-58
2022/11/25 07:19:34;;;;;;;;;;;6.60;94.50;;;;;;5000481;28;19920;-58
2022/11/25 07:22:01;;;;;;;;;;;6.60;94.60;;;;;;4996218;28;19921;-55
2022/11/25 07:24:27;;;;;;;;;;;6.70;94.60;;;;;;5001511;28;19914;-53
2022/11/25 07:26:54;;;;;;;;;;;6.70;94.60;;;;;;5014150;28;19920;-50
2022/11/25 07:29:21;;;;;;;;;;;6.70;94.70;;;;;;5015366;28;19913;-54
2022/11/25 07:31:48;;;;;;;;;;;6.70;94.70;;;;;;5009905;28;20371;-60
2022/11/25 07:34:19;;;;;;;;;;;6.80;94.70;;;;;;4995887;28;19906;-61
2022/11/25 07:36:47;;;;;;;;;;;6.80;94.70;;;;;;5001020;28;19952;-59
2022/11/25 07:39:15;;;;;;;;;;;6.80;94.80;;;;;;5014485;28;19913;-57
2022/11/25 07:41:42;;;;;;;;;;;6.80;94.80;;;;;;5010606;28;19945;-56
2022/11/25 07:44:10;;;;;;;;;;;6.80;94.80;;;;;;5011629;28;20350;-55
2022/11/25 07:46:38;;;;;;;;;;;6.80;94.80;;;;;;5009333;28;19914;-51
2022/11/25 07:49:10;;;;;;;;;;;6.90;94.80;;;;;;5010787;28;19909;-49
2022/11/25 07:51:46;;;;;;;;;;;6.90;94.90;;;;;;5010874;28;19914;-49
2022/11/25 07:54:14;;;;;;;;;;;6.90;94.90;;;;;;4995863;28;19933;-49
2022/11/25 07:56:44;;;;;;;;;;;6.90;94.90;;;;;;5014767;28;19921;-51
2022/11/25 07:59:14;;;;;;;;;;;6.90;94.90;;;;;;5014802;28;19905;-48
2022/11/25 08:01:41;;;;;;;;;;;7.00;94.90;;;;;;5007758;28;20255;-49
2022/11/25 08:04:09;;;;;;;;;;;7.00;95.00;;;;;;5008190;28;20445;-53
2022/11/25 08:06:41;;;;;;;;;;;7.00;95.00;;;;;;5011547;28;20290;-56
2022/11/25 08:09:07;;;;;;;;;;;7.00;95.00;;;;;;5014832;28;20342;-54
2022/11/25 08:11:34;;;;;;;;;;;7.00;95.00;;;;;;5013542;28;19967;-56
2022/11/25 08:14:01;;;;;;;;;;;7.00;95.00;;;;;;4999740;28;19918;-56
2022/11/25 08:16:31;;;;;;;;;;;7.00;95.00;;;;;;4995068;28;20000;-58
2022/11/25 08:18:59;;;;;;;;;;;7.10;95.00;;;;;;5002648;28;20121;-58
2022/11/25 08:21:26;;;;;;;;;;;7.10;95.00;;;;;;5000812;28;19910;-56
2022/11/25 08:23:54;;;;;;;;;;;7.20;95.00;;;;;;5010347;28;20000;-58
2022/11/25 08:26:38;;;;;;;;;;;7.20;95.10;;;;;;5006830;28;19921;-55
2022/11/25 08:29:05;;;;;;;;;;;7.20;95.00;;;;;;5014679;28;19911;-52
2022/11/25 08:31:33;;;;;;;;;;;7.20;95.00;;;;;;5013025;28;20619;-56
2022/11/25 08:34:00;;;;;;;;;;;7.20;95.00;;;;;;5004907;28;20259;-49
2022/11/25 08:36:27;;;;;;;;;;;7.30;95.10;;;;;;5004719;28;19919;-47
2022/11/25 08:38:56;;;;;;;;;;;7.20;95.00;;;;;;5014516;28;19905;-47
2022/11/25 08:41:27;;;;;;;;;;;7.20;95.00;;;;;;5008816;28;20270;-47
2022/11/25 08:43:53;;;;;;;;;;;7.30;95.10;;;;;;4994612;28;20307;-47
2022/11/25 08:46:26;;;;;;;;;;;7.30;95.10;;;;;;5010108;28;19906;-46
2022/11/25 08:48:54;;;;;;;;;;;7.40;95.10;;;;;;4994888;28;19913;-46
2022/11/25 08:51:26;;;;;;;;;;;7.30;95.10;;;;;;5012249;28;20469;-46
2022/11/25 08:53:52;;;;;;;;;;;7.30;95.10;;;;;;5006199;28;19913;-46
2022/11/25 08:56:20;;;;;;;;;;;7.40;95.10;;;;;;5005862;28;19913;-46
2022/11/25 08:58:51;;;;;;;;;;;7.40;95.10;;;;;;5014100;28;20246;-45
2022/11/25 09:01:19;;;;;;;;;;;7.40;95.10;;;;;;5013562;28;19927;-46
2022/11/25 09:03:49;;;;;;;;;;;7.40;95.10;;;;;;5011665;28;19909;-45
2022/11/25 09:06:20;;;;;;;;;;;7.40;95.10;;;;;;5013807;28;19909;-45
2022/11/25 09:08:47;;;;;;;;;;;7.50;95.00;;;;;;5013446;28;19906;-46
2022/11/25 09:11:14;;;;;;;;;;;7.40;95.00;;;;;;5009868;28;19917;-45
2022/11/25 09:13:40;;;;;;;;;;;7.40;95.00;;;;;;5000680;28;20489;-44
2022/11/25 09:16:08;;;;;;;;;;;7.50;95.00;;;;;;5013333;28;19909;-45
2022/11/25 09:18:36;;;;;;;;;;;7.60;95.10;;;;;;5010291;28;19960;-45
2022/11/25 09:21:07;;;;;;;;;;;7.60;95.00;;;;;;5013817;28;20279;-45
2022/11/25 09:23:33;;;;;;;;;;;7.70;95.00;;;;;;5013679;28;20331;-44
2022/11/25 09:26:00;;;;;;;;;;;7.70;95.00;;;;;;5008545;28;19913;-45
2022/11/25 09:28:27;;;;;;;;;;;7.70;95.00;;;;;;4993783;28;19905;-44
2022/11/25 09:30:54;;;;;;;;;;;7.70;95.00;;;;;;4995246;28;19960;-43
2022/11/25 09:33:24;;;;;;;;;;;7.70;94.90;;;;;;5012138;28;19999;-45
2022/11/25 09:35:51;;;;;;;;;;;7.80;95.00;;;;;;5007550;28;20370;-46
2022/11/25 09:38:18;;;;;;;;;;;7.80;95.00;;;;;;4998131;28;19912;-47
2022/11/25 09:40:55;;;;;;;;;;;7.80;95.00;;;;;;5008266;28;20377;-47
2022/11/25 09:46:44;;;;;;;;;;;7.90;95.00;;;;;;5016144;28;19975;-46
2022/11/25 09:49:30;;;;;;;;;;;7.90;94.90;;;;;;5013715;28;19936;-46
2022/11/25 09:52:14;;;;;;;;;;;7.90;94.90;;;;;;5008947;28;19913;-47
2022/11/25 09:54:58;;;;;;;;;;;7.90;94.90;;;;;;5016459;28;19964;-46
2022/11/25 09:57:45;;;;;;;;;;;8.00;94.90;;;;;;5019250;28;19910;-49
2022/11/25 10:00:30;;;;;;;;;;;8.00;94.90;;;;;;5016659;28;19906;-45
2022/11/25 10:03:14;;;;;;;;;;;8.10;95.00;;;;;;5012017;28;19910;-46
2022/11/25 10:05:58;;;;;;;;;;;8.20;95.00;;;;;;4997486;28;19910;-62
2022/11/25 10:08:27;;;;;;;;;;;8.30;95.00;;;;;;4997731;28;19906;-61
2022/11/25 10:10:58;;;;;;;;;;;8.40;95.00;;;;;;5000907;28;19929;-62
2022/11/25 10:13:53;;;;;;;;;;;8.40;94.90;;;;;;4997540;28;19910;-58
2022/11/25 10:16:42;;;;;;;;;;;8.40;94.90;;;;;;4994748;28;19909;-53
2022/11/25 10:19:27;;;;;;;;;;;8.50;94.90;;;;;;4997322;28;20238;-48
2022/11/25 10:21:54;;;;;;;;;;;8.50;94.90;;;;;;5004445;28;19916;-47
2022/11/25 10:24:21;;;;;;;;;;;8.60;94.90;;;;;;5012809;28;19974;-49
2022/11/25 10:26:51;;;;;;;;;;;8.80;94.90;;;;;;5016272;28;20339;-47
2022/11/25 10:29:26;;;;;;;;;;;8.90;94.90;;;;;;5016867;28;20011;-46
2022/11/25 10:32:13;;;;;;;;;;;8.90;94.80;;;;;;4999900;28;20227;-46
2022/11/25 10:34:46;;;;;;;;;;;8.90;94.70;;;;;;4996766;28;19972;-47
2022/11/25 10:37:18;;;;;;;;;;;9.00;94.80;;;;;;4997534;28;19910;-44
2022/11/25 10:39:45;;;;;;;;;;;9.00;94.70;;;;;;4998475;28;19917;-45
2022/11/25 10:42:19;;;;;;;;;;;9.20;94.70;;;;;;5013524;28;19913;-45
2022/11/25 10:44:46;;;;;;;;;;;9.30;94.70;;;;;;5012882;28;19914;-45
2022/11/25 10:47:29;;;;;;;;;;;9.40;94.50;;;;;;5010390;28;19909;-45
2022/11/25 10:50:14;;;;;;;;;;;9.30;94.40;;;;;;5014454;28;19955;-44
2022/11/25 10:52:56;;;;;;;;;;;9.40;94.30;;;;;;5015455;28;20034;-44
2022/11/25 10:55:30;;;;;;;;;;;9.40;94.30;;;;;;5005402;28;19910;-43
2022/11/25 10:57:57;;;;;;;;;;;9.50;94.10;;;;;;5014957;28;19932;-44
2022/11/25 11:00:42;;;;;;;;;;;9.60;94.00;;;;;;5013067;28;19909;-43
2022/11/25 11:03:26;;;;;;;;;;;9.60;93.90;;;;;;5013650;28;19910;-44
2022/11/25 11:05:53;;;;;;;;;;;9.70;93.70;;;;;;5007851;28;19909;-43
2022/11/25 11:08:21;;;;;;;;;;;9.70;93.50;;;;;;4996740;28;19909;-45
2022/11/25 11:11:11;;;;;;;;;;;9.70;93.40;;;;;;5002707;28;19931;-46
2022/11/25 11:13:38;;;;;;;;;;;9.70;93.20;;;;;;5016009;28;19910;-44
2022/11/25 11:16:20;;;;;;;;;;;9.70;93.10;;;;;;5003212;28;19913;-43
2022/11/25 11:18:49;;;;;;;;;;;9.70;93.10;;;;;;4995235;28;20016;-43
2022/11/25 11:21:42;;;;;;;;;;;9.60;92.90;;;;;;4996010;28;19930;-43
2022/11/25 11:24:27;;;;;;;;;;;9.60;93.00;;;;;;5008274;28;20259;-44
2022/11/25 11:27:23;;;;;;;;;;;9.70;93.00;;;;;;5015280;28;19909;-44
2022/11/25 11:30:10;;;;;;;;;;;9.60;92.90;;;;;;4994692;28;19918;-43
2022/11/25 11:32:38;;;;;;;;;;;9.50;93.00;;;;;;5002907;28;19909;-43
2022/11/25 11:35:22;;;;;;;;;;;9.40;92.90;;;;;;4996165;28;19906;-45
2022/11/25 11:37:53;;;;;;;;;;;9.40;92.90;;;;;;4995773;28;19987;-44
2022/11/25 11:40:37;;;;;;;;;;;9.40;93.00;;;;;;4995111;28;19909;-43
2022/11/25 11:43:15;;;;;;;;;;;9.40;93.10;;;;;;4998722;28;19944;-43
2022/11/25 11:45:47;;;;;;;;;;;9.50;93.20;;;;;;4995782;28;19905;-43
2022/11/25 11:48:32;;;;;;;;;;;9.50;93.30;;;;;;4995536;28;19913;-43
2022/11/25 11:51:15;;;;;;;;;;;9.50;93.30;;;;;;4995529;28;19920;-44
2022/11/25 11:53:59;;;;;;;;;;;9.50;93.30;;;;;;5003335;28;19935;-43
2022/11/25 11:56:27;;;;;;;;;;;9.60;93.40;;;;;;5009698;28;20335;-42
2022/11/25 11:59:08;;;;;;;;;;;9.80;93.50;;;;;;5015323;28;19949;-44
2022/11/25 12:01:53;;;;;;;;;;;9.90;93.40;;;;;;4994584;28;19920;-45
2022/11/25 12:04:52;;;;;;;;;;;10.00;93.40;;;;;;5009520;28;19916;-43
2022/11/25 12:07:37;;;;;;;;;;;10.10;93.30;;;;;;4987035;28;19914;-44
2022/11/25 12:10:06;;;;;;;;;;;10.20;93.00;;;;;;5005526;28;20379;-44
2022/11/25 12:12:39;;;;;;;;;;;10.20;92.90;;;;;;5008113;28;20001;-44
2022/11/25 12:15:14;;;;;;;;;;;10.20;92.70;;;;;;5009580;28;19909;-44
2022/11/25 12:17:47;;;;;;;;;;;10.20;92.50;;;;;;5012682;28;19920;-44
2022/11/25 12:20:20;;;;;;;;;;;10.20;92.40;;;;;;5013016;28;19920;-44
2022/11/25 12:23:04;;;;;;;;;;;10.20;92.30;;;;;;4996132;28;20374;-44
2022/11/25 12:25:36;;;;;;;;;;;10.20;92.10;;;;;;4998614;28;19971;-44
2022/11/25 12:28:20;;;;;;;;;;;10.10;92.10;;;;;;5014073;28;20554;-43
2022/11/25 12:30:57;;;;;;;;;;;10.10;92.10;;;;;;5010211;28;19909;-45
2022/11/25 12:33:35;;;;;;;;;;;10.00;92.10;;;;;;4995019;28;19914;-43
2022/11/25 12:36:11;;;;;;;;;;;10.00;92.20;;;;;;4994877;28;19905;-44
2022/11/25 12:38:58;;;;;;;;;;;10.00;92.30;;;;;;4994582;28;19909;-44
2022/11/25 12:41:31;;;;;;;;;;;10.00;92.20;;;;;;5003761;28;19920;-44
2022/11/25 12:44:15;;;;;;;;;;;9.90;92.10;;;;;;5007320;28;19921;-44
2022/11/25 12:47:00;;;;;;;;;;;9.90;92.20;;;;;;5013389;28;19910;-45
2022/11/25 12:49:33;;;;;;;;;;;9.90;92.40;;;;;;5012683;28;19917;-43
2022/11/25 12:52:18;;;;;;;;;;;9.90;92.40;;;;;;5009567;28;19909;-44
2022/11/25 12:54:55;;;;;;;;;;;9.90;92.50;;;;;;5009641;28;19916;-44
2022/11/25 12:57:39;;;;;;;;;;;9.90;92.50;;;;;;4993687;28;19980;-44
2022/11/25 13:00:24;;;;;;;;;;;9.90;92.40;;;;;;4994109;28;19909;-44
2022/11/25 13:02:55;;;;;;;;;;;9.90;92.40;;;;;;4994236;28;19956;-44
2022/11/25 13:05:43;;;;;;;;;;;9.90;92.50;;;;;;4994057;28;19918;-44
2022/11/25 13:08:26;;;;;;;;;;;9.90;92.60;;;;;;5004143;28;19960;-44
2022/11/25 13:11:11;;;;;;;;;;;9.90;92.50;;;;;;5011989;28;19921;-44
2022/11/25 13:13:46;;;;;;;;;;;9.80;92.50;;;;;;4994113;28;20331;-44
2022/11/25 13:16:14;;;;;;;;;;;9.90;92.60;;;;;;5007481;28;19913;-43
2022/11/25 13:18:42;;;;;;;;;;;9.80;92.60;;;;;;5012456;28;20421;-45
2022/11/25 13:21:13;;;;;;;;;;;9.80;92.60;;;;;;5013919;28;19957;-44
2022/11/25 13:23:51;;;;;;;;;;;9.80;92.60;;;;;;5013988;28;20364;-44
2022/11/25 13:26:35;;;;;;;;;;;9.90;92.70;;;;;;5011093;28;19920;-44
2022/11/25 13:29:16;;;;;;;;;;;9.90;92.50;;;;;;5000239;28;19920;-46
2022/11/25 13:32:01;;;;;;;;;;;9.80;92.50;;;;;;5000521;28;20398;-44
2022/11/25 13:34:34;;;;;;;;;;;9.80;92.50;;;;;;5013033;28;20275;-43
2022/11/25 13:37:21;;;;;;;;;;;9.80;92.50;;;;;;5010625;28;19976;-44
2022/11/25 13:39:48;;;;;;;;;;;9.70;92.50;;;;;;4994130;28;19906;-45
2022/11/25 13:42:23;;;;;;;;;;;9.70;92.40;;;;;;5009861;28;19921;-45
2022/11/25 13:44:49;;;;;;;;;;;9.70;92.40;;;;;;5013633;28;19912;-45
2022/11/25 13:47:20;;;;;;;;;;;9.70;92.50;;;;;;5012753;28;19910;-46
2022/11/25 13:50:04;;;;;;;;;;;9.70;92.60;;;;;;4996641;28;19917;-44
2022/11/25 13:52:45;;;;;;;;;;;9.60;92.50;;;;;;5008931;28;20255;-44
2022/11/25 13:55:23;;;;;;;;;;;9.60;92.50;;;;;;4993993;28;20027;-43
2022/11/25 13:58:04;;;;;;;;;;;9.60;92.60;;;;;;5008528;28;19920;-44
2022/11/25 14:00:35;;;;;;;;;;;9.50;92.60;;;;;;4995012;28;20499;-43
2022/11/25 14:03:19;;;;;;;;;;;9.40;92.60;;;;;;5012492;28;20025;-44
2022/11/25 14:06:03;;;;;;;;;;;9.40;92.60;;;;;;5012145;28;19909;-43
2022/11/25 14:08:45;;;;;;;;;;;9.40;92.70;;;;;;4993967;28;20328;-43
2022/11/25 14:11:29;;;;;;;;;;;9.40;92.80;;;;;;4996716;28;19927;-43
2022/11/25 14:14:05;;;;;;;;;;;9.40;92.80;;;;;;5009865;28;19921;-43
2022/11/25 14:16:51;;;;;;;;;;;9.40;92.80;;;;;;5003790;28;19913;-46
2022/11/25 14:19:36;;;;;;;;;;;9.40;92.80;;;;;;5006718;28;19913;-44
2022/11/25 14:22:04;;;;;;;;;;;9.30;92.80;;;;;;5011717;28;20220;-44
2022/11/25 14:24:49;;;;;;;;;;;9.20;92.80;;;;;;5008962;28;19913;-43
2022/11/25 14:27:26;;;;;;;;;;;9.20;92.80;;;;;;4998860;28;19952;-44
2022/11/25 14:30:19;;;;;;;;;;;9.10;92.80;;;;;;5012374;28;20314;-43
2022/11/25 14:33:03;;;;;;;;;;;9.10;92.90;;;;;;5012275;28;19913;-43
2022/11/25 14:35:47;;;;;;;;;;;9.10;92.90;;;;;;5011558;28;19964;-44
2022/11/25 14:38:40;;;;;;;;;;;9.00;92.90;;;;;;5007147;28;19936;-44
2022/11/25 14:41:12;;;;;;;;;;;9.00;92.90;;;;;;4996069;28;19920;-44
2022/11/25 14:43:41;;;;;;;;;;;8.90;93.00;;;;;;5012158;28;19913;-44
2022/11/25 14:46:16;;;;;;;;;;;8.90;93.10;;;;;;4996967;28;19906;-42
2022/11/25 14:48:45;;;;;;;;;;;8.90;93.00;;;;;;4996879;28;19972;-44
2022/11/25 14:51:17;;;;;;;;;;;8.90;93.00;;;;;;5000632;28;19917;-44
2022/11/25 14:53:45;;;;;;;;;;;8.80;93.10;;;;;;5014753;28;19909;-43
2022/11/25 14:56:12;;;;;;;;;;;8.70;93.10;;;;;;5016346;28;19905;-43
2022/11/25 14:58:49;;;;;;;;;;;8.70;93.10;;;;;;5011003;28;19910;-44
2022/11/25 15:01:34;;;;;;;;;;;8.70;93.20;;;;;;4997299;28;19917;-43
2022/11/25 15:04:12;;;;;;;;;;;8.60;93.10;;;;;;5000126;28;19996;-44
2022/11/25 15:06:41;;;;;;;;;;;8.60;93.20;;;;;;5015451;28;20315;-43